Lake Arthur, Louisiana
Current Conditions -  °F | °C
As of 7:35 PM on Saturday 25 Oct 2014 (Local Time) from K3R7 Reporting Station
Clear Clear  
Wind Chill: 69°   Ceiling: Unl
Heat Index: 69°   Visibility: 10mi
Dew Point: 49°   Wind: 5mph
Humidity: 49%   Direction: 200°SSW
Pressure: 30.09"   Gusts: NA
Location:  30.08°N, 92.67°W
Report Text: K3R7 260035Z AUTO 20004KT 10SM CLR 21/10 A3009 RMK AO2 T02070097
Loading
Personal Weather Stations






























Interactive Weather Map New forecast layout! Learn more

10-Day Weather Forecast

Advertisements
Track Severe Weather on mobile